Time;durP1;ratioP1;P1;durP2;ratioP2;P2;SDS_P1;SDS_P2;PMS_P1;PMS_P2;Temp;Humidity;BMP_temperature;BMP_pressure;BME280_temperature;BME280_humidity;BME280_pressure;Samples;Min_cycle;Max_cycle;Signal;HPM_P1;HPM_P2
2021/12/27 00:08:34;;;;;;;9.95;4.15;;;2.90;99.90;;;;;;6762803;88;20221;-76
2021/12/27 00:18:35;;;;;;;14.20;7.35;;;2.90;99.90;;;;;;6760888;87;20188;-77
2021/12/27 00:28:36;;;;;;;17.77;8.50;;;2.90;99.90;;;;;;6764205;88;20338;-76
2021/12/27 00:38:36;;;;;;;12.52;6.05;;;2.90;99.90;;;;;;6764513;88;20664;-76
2021/12/27 00:48:37;;;;;;;16.58;8.55;;;2.90;99.90;;;;;;6762082;88;20246;-77
2021/12/27 00:58:37;;;;;;;18.58;9.73;;;2.90;99.90;;;;;;6765282;88;20521;-76
2021/12/27 01:08:38;;;;;;;13.32;6.50;;;3.00;99.90;;;;;;6769721;88;20662;-77
2021/12/27 01:18:45;;;;;;;14.68;6.87;;;3.10;99.90;;;;;;6769501;87;20207;-76
2021/12/27 01:28:46;;;;;;;17.02;8.40;;;3.00;99.90;;;;;;6766365;87;20183;-77
2021/12/27 01:38:48;;;;;;;18.87;9.13;;;3.10;99.90;;;;;;6766647;88;20228;-77
2021/12/27 01:48:56;;;;;;;19.30;9.48;;;3.20;99.90;;;;;;6755918;88;20180;-76
2021/12/27 01:58:58;;;;;;;14.63;6.82;;;3.20;99.90;;;;;;6765587;88;20180;-76
2021/12/27 02:08:59;;;;;;;16.05;7.72;;;3.30;99.90;;;;;;6765665;88;20334;-77
2021/12/27 02:18:59;;;;;;;12.53;6.07;;;3.30;99.90;;;;;;6764480;87;20191;-76
2021/12/27 02:29:00;;;;;;;15.02;7.28;;;3.30;99.90;;;;;;6773645;87;20539;-75
2021/12/27 02:39:00;;;;;;;14.77;7.87;;;3.40;99.90;;;;;;6765808;87;20183;-76
2021/12/27 02:49:01;;;;;;;13.45;7.22;;;3.50;99.90;;;;;;6763110;87;20209;-76
2021/12/27 02:59:02;;;;;;;12.93;6.32;;;3.50;99.90;;;;;;6762995;87;20237;-77
2021/12/27 03:09:03;;;;;;;14.18;7.28;;;3.50;99.90;;;;;;6760640;77;20500;-76
2021/12/27 03:19:03;;;;;;;16.42;8.05;;;3.50;99.90;;;;;;6727019;88;20671;-76
2021/12/27 03:29:04;;;;;;;14.00;7.40;;;3.60;99.90;;;;;;6736058;88;20392;-76
2021/12/27 03:39:09;;;;;;;10.65;5.68;;;3.70;99.90;;;;;;6735844;88;20663;-75
2021/12/27 03:49:10;;;;;;;11.65;5.30;;;3.70;99.90;;;;;;6734781;88;20251;-77
2021/12/27 03:59:22;;;;;;;11.27;4.72;;;3.80;99.90;;;;;;6734329;88;20650;-76
2021/12/27 04:09:23;;;;;;;11.25;5.45;;;3.90;99.90;;;;;;6735716;88;20195;-77
2021/12/27 04:19:24;;;;;;;10.20;5.28;;;4.00;99.90;;;;;;6725878;88;20601;-76
2021/12/27 04:29:24;;;;;;;11.82;6.28;;;4.00;99.90;;;;;;6726915;88;20221;-77
2021/12/27 04:39:26;;;;;;;10.63;5.80;;;4.10;99.90;;;;;;6715683;88;20314;-77
2021/12/27 04:49:27;;;;;;;10.65;5.32;;;4.20;99.90;;;;;;6738543;88;20256;-76
2021/12/27 04:59:28;;;;;;;9.90;5.03;;;4.30;99.90;;;;;;6734403;88;20193;-77
2021/12/27 05:09:28;;;;;;;11.80;5.10;;;4.40;99.90;;;;;;6736897;88;20299;-76
2021/12/27 05:19:29;;;;;;;8.73;4.53;;;4.40;99.90;;;;;;6734221;88;20219;-76
2021/12/27 05:29:29;;;;;;;11.73;4.97;;;4.50;99.90;;;;;;6739032;88;20218;-75
2021/12/27 05:39:32;;;;;;;9.02;4.68;;;4.50;99.90;;;;;;6738955;88;20182;-78
2021/12/27 05:49:32;;;;;;;7.68;3.90;;;4.50;99.90;;;;;;6718641;88;20830;-76
2021/12/27 05:59:33;;;;;;;9.65;5.03;;;4.60;99.90;;;;;;6728515;88;20300;-77
2021/12/27 06:09:33;;;;;;;9.93;4.20;;;4.50;99.90;;;;;;6722300;88;20218;-76
2021/12/27 06:19:34;;;;;;;6.47;3.00;;;4.40;99.90;;;;;;6722052;88;20532;-77
2021/12/27 06:29:35;;;;;;;10.32;5.45;;;4.40;99.90;;;;;;6722084;88;20709;-76
2021/12/27 06:39:36;;;;;;;14.87;6.32;;;4.30;99.90;;;;;;6723664;88;20199;-77
2021/12/27 06:49:37;;;;;;;14.52;6.37;;;4.20;99.90;;;;;;6740047;88;20188;-77
2021/12/27 06:59:38;;;;;;;11.80;4.65;;;4.20;99.90;;;;;;6735771;88;20204;-77
2021/12/27 07:09:38;;;;;;;17.67;7.10;;;4.20;99.90;;;;;;6733479;88;20236;-76
2021/12/27 07:19:39;;;;;;;21.33;7.47;;;4.20;99.90;;;;;;6731732;88;20273;-77
2021/12/27 07:29:39;;;;;;;19.40;7.15;;;4.30;99.90;;;;;;6735166;88;20203;-77
2021/12/27 07:39:40;;;;;;;11.93;5.33;;;4.20;99.90;;;;;;6731029;88;20192;-76
2021/12/27 07:49:41;;;;;;;15.70;7.35;;;4.20;99.90;;;;;;6735025;88;20527;-78
2021/12/27 07:59:42;;;;;;;12.35;5.72;;;4.20;99.90;;;;;;6735108;88;20184;-77
2021/12/27 08:09:42;;;;;;;6.68;3.50;;;4.50;99.90;;;;;;6740159;88;20244;-77
2021/12/27 08:19:43;;;;;;;13.38;5.40;;;4.60;99.90;;;;;;6739759;88;20210;-77
2021/12/27 08:29:43;;;;;;;5.80;2.67;;;4.80;99.90;;;;;;6736506;88;20765;-77
2021/12/27 08:39:44;;;;;;;7.12;3.95;;;5.00;99.90;;;;;;6740343;88;20973;-77
2021/12/27 08:49:45;;;;;;;8.55;4.40;;;5.20;99.90;;;;;;6741939;88;20376;-77
2021/12/27 08:59:46;;;;;;;7.80;4.32;;;5.30;99.90;;;;;;6743640;88;20664;-78
2021/12/27 09:09:46;;;;;;;6.87;3.30;;;5.40;99.90;;;;;;6709407;77;20191;-74
2021/12/27 09:19:47;;;;;;;6.70;3.80;;;5.50;99.90;;;;;;6662849;89;20312;-75
2021/12/27 09:29:49;;;;;;;7.87;3.70;;;5.50;99.90;;;;;;6687141;88;20208;-74
2021/12/27 09:39:53;;;;;;;5.82;3.33;;;5.90;99.90;;;;;;6673505;88;20256;-76
2021/12/27 09:49:53;;;;;;;4.65;2.95;;;6.70;99.90;;;;;;6683048;88;20191;-75
2021/12/27 09:59:54;;;;;;;4.40;2.50;;;6.80;99.90;;;;;;6672976;89;20725;-74
2021/12/27 10:09:58;;;;;;;4.90;2.85;;;6.60;99.90;;;;;;6669715;88;20285;-77
2021/12/27 10:20:20;;;;;;;5.53;2.47;;;6.80;99.90;;;;;;6672619;88;20204;-75
2021/12/27 10:30:28;;;;;;;4.57;2.60;;;7.60;99.90;;;;;;6668098;88;20633;-76
2021/12/27 10:40:33;;;;;;;4.10;2.55;;;7.60;99.90;;;;;;6675831;88;20255;-74
2021/12/27 10:50:37;;;;;;;4.05;2.33;;;7.80;99.90;;;;;;6735673;88;20518;-75
2021/12/27 11:00:38;;;;;;;3.55;2.30;;;7.60;99.90;;;;;;6741577;88;20391;-75
2021/12/27 11:10:39;;;;;;;4.07;1.98;;;7.80;99.90;;;;;;6741921;88;20229;-74
2021/12/27 11:20:46;;;;;;;4.53;2.62;;;7.40;99.90;;;;;;6668735;88;20207;-74
2021/12/27 11:30:46;;;;;;;5.15;2.30;;;7.50;99.90;;;;;;6636134;88;20280;-75
2021/12/27 11:40:48;;;;;;;4.90;2.08;;;8.30;99.90;;;;;;6638287;89;20286;-75
2021/12/27 11:50:57;;;;;;;2.80;1.80;;;8.40;99.90;;;;;;6669510;89;20257;-75
2021/12/27 12:00:59;;;;;;;2.80;1.67;;;8.30;99.90;;;;;;6669808;89;20220;-76
2021/12/27 12:11:01;;;;;;;2.83;1.65;;;8.10;99.90;;;;;;6669023;89;20230;-75
2021/12/27 12:21:02;;;;;;;2.97;1.87;;;7.90;99.90;;;;;;6669549;89;20240;-74
2021/12/27 12:31:02;;;;;;;1.80;1.20;;;8.00;99.90;;;;;;6669534;89;20199;-75
2021/12/27 12:41:13;;;;;;;2.60;1.52;;;7.90;99.90;;;;;;6668757;88;20214;-75
2021/12/27 12:51:13;;;;;;;3.10;1.95;;;7.80;99.90;;;;;;6670715;88;20187;-75
2021/12/27 13:01:14;;;;;;;3.50;2.03;;;7.90;99.90;;;;;;6671380;88;20217;-75
2021/12/27 13:11:17;;;;;;;3.85;2.17;;;7.90;99.90;;;;;;6671459;88;20535;-75
2021/12/27 13:21:17;;;;;;;3.70;2.25;;;7.80;99.90;;;;;;6671234;88;20222;-75
2021/12/27 13:31:23;;;;;;;4.93;2.78;;;7.90;99.90;;;;;;6671082;88;20210;-76
2021/12/27 13:41:27;;;;;;;4.07;2.40;;;7.80;99.90;;;;;;6670202;88;20192;-75
2021/12/27 13:51:30;;;;;;;4.75;2.85;;;7.80;99.90;;;;;;6672207;89;20344;-75
2021/12/27 14:01:31;;;;;;;5.70;3.10;;;7.70;99.90;;;;;;6669799;89;20646;-75
2021/12/27 14:11:31;;;;;;;6.50;3.28;;;7.70;99.90;;;;;;6666111;89;20215;-75
2021/12/27 14:22:02;;;;;;;5.47;3.10;;;7.70;99.90;;;;;;6655811;89;20346;-75
2021/12/27 14:32:03;;;;;;;6.60;3.55;;;7.80;99.90;;;;;;6673604;88;20226;-75
2021/12/27 14:42:06;;;;;;;7.07;3.47;;;7.80;99.90;;;;;;6670158;88;20233;-77
2021/12/27 14:52:07;;;;;;;5.97;3.67;;;7.80;99.90;;;;;;6659796;88;20234;-77
2021/12/27 15:02:10;;;;;;;6.40;3.85;;;7.80;99.90;;;;;;6654998;89;20315;-75
2021/12/27 15:12:11;;;;;;;7.40;4.00;;;7.90;99.90;;;;;;6652901;89;20686;-75
2021/12/27 15:22:12;;;;;;;5.60;3.42;;;7.80;99.90;;;;;;6661960;88;20286;-75
2021/12/27 15:32:13;;;;;;;7.62;4.37;;;7.80;99.90;;;;;;6648360;89;20321;-75
2021/12/27 15:42:14;;;;;;;6.95;3.97;;;7.80;99.90;;;;;;6662275;88;20234;-75
2021/12/27 15:52:15;;;;;;;7.87;4.60;;;7.70;99.90;;;;;;6659072;88;20243;-75
2021/12/27 16:02:15;;;;;;;7.65;4.05;;;7.70;99.90;;;;;;6663283;88;20270;-75
2021/12/27 16:12:16;;;;;;;6.43;3.22;;;7.70;99.90;;;;;;6651676;88;20217;-76
2021/12/27 16:22:17;;;;;;;7.40;3.67;;;7.70;99.90;;;;;;6667220;88;20653;-75
2021/12/27 16:32:18;;;;;;;7.00;3.25;;;7.60;99.90;;;;;;6741189;88;20208;-75
2021/12/27 16:42:19;;;;;;;7.87;4.40;;;7.50;99.90;;;;;;6737553;88;20219;-75
2021/12/27 16:52:20;;;;;;;6.87;4.10;;;7.50;99.90;;;;;;6742839;87;20491;-75
2021/12/27 17:02:21;;;;;;;6.25;3.67;;;7.50;99.90;;;;;;6744451;88;20284;-75
2021/12/27 17:12:21;;;;;;;5.50;3.53;;;7.60;99.90;;;;;;6740546;88;20210;-74
2021/12/27 17:22:22;;;;;;;6.45;3.28;;;7.60;99.90;;;;;;6737156;88;20176;-74
2021/12/27 17:32:22;;;;;;;8.23;4.72;;;7.60;99.90;;;;;;6739189;88;20223;-75
2021/12/27 17:42:23;;;;;;;8.77;5.05;;;7.40;99.90;;;;;;6751402;88;20217;-74
2021/12/27 17:52:23;;;;;;;8.68;5.07;;;7.40;99.90;;;;;;6758754;88;20176;-75
2021/12/27 18:02:25;;;;;;;10.93;5.18;;;7.30;99.90;;;;;;6764661;88;20308;-75
2021/12/27 18:12:26;;;;;;;8.30;4.47;;;7.40;99.90;;;;;;6756656;88;20209;-74
2021/12/27 18:22:26;;;;;;;8.30;4.05;;;7.50;99.90;;;;;;6756633;88;20579;-74
2021/12/27 18:32:27;;;;;;;7.80;4.62;;;7.50;99.90;;;;;;6755998;87;20321;-75
2021/12/27 18:42:28;;;;;;;7.93;4.15;;;7.50;99.90;;;;;;6752276;87;20218;-74
2021/12/27 18:52:28;;;;;;;8.88;5.18;;;7.50;99.90;;;;;;6756012;87;20254;-74
2021/12/27 19:02:29;;;;;;;10.75;5.72;;;7.50;99.90;;;;;;6753308;87;20870;-75
2021/12/27 19:12:29;;;;;;;11.18;6.65;;;7.50;99.90;;;;;;6756469;87;20191;-74
2021/12/27 19:22:30;;;;;;;11.48;6.22;;;7.40;99.90;;;;;;6756578;87;20377;-74
2021/12/27 19:32:31;;;;;;;12.88;7.30;;;7.40;99.90;;;;;;6755056;87;20188;-76
2021/12/27 19:42:31;;;;;;;11.27;6.85;;;7.50;99.90;;;;;;6735970;88;20367;-76
2021/12/27 19:52:32;;;;;;;12.67;7.43;;;7.50;99.90;;;;;;6731216;88;20221;-75
2021/12/27 20:02:33;;;;;;;11.90;6.25;;;7.50;99.90;;;;;;6735685;88;20958;-75
2021/12/27 20:12:34;;;;;;;14.60;8.77;;;7.50;99.90;;;;;;6733426;88;20657;-75
2021/12/27 20:22:34;;;;;;;12.57;8.10;;;7.40;99.90;;;;;;6732573;88;20707;-75
2021/12/27 20:32:35;;;;;;;15.97;8.73;;;7.40;99.90;;;;;;6736053;88;20205;-76
2021/12/27 20:42:37;;;;;;;15.68;9.10;;;7.40;99.90;;;;;;6736794;88;21366;-76
2021/12/27 20:52:38;;;;;;;14.45;8.30;;;7.40;99.90;;;;;;6736668;88;20238;-75
2021/12/27 21:02:39;;;;;;;16.12;9.82;;;7.40;99.90;;;;;;6731035;88;20673;-77
2021/12/27 21:12:39;;;;;;;17.25;9.35;;;7.40;99.90;;;;;;6737846;77;20204;-76
2021/12/27 21:22:40;;;;;;;14.85;7.62;;;7.50;99.90;;;;;;6735249;87;20283;-76
2021/12/27 21:32:42;;;;;;;13.13;7.07;;;7.60;99.90;;;;;;6733760;88;20193;-76
2021/12/27 21:42:45;;;;;;;12.90;7.55;;;7.60;99.90;;;;;;6725491;88;20208;-75
2021/12/27 21:52:47;;;;;;;12.65;7.43;;;7.60;99.90;;;;;;6740842;88;20314;-75
2021/12/27 22:02:49;;;;;;;13.70;7.87;;;7.50;99.90;;;;;;6726542;88;20224;-74
2021/12/27 22:12:50;;;;;;;11.18;7.15;;;7.40;99.90;;;;;;6731045;88;20274;-74
2021/12/27 22:22:50;;;;;;;15.13;7.35;;;7.30;99.90;;;;;;6733540;88;20216;-74
2021/12/27 22:32:54;;;;;;;11.65;7.03;;;7.30;99.90;;;;;;6722313;88;20198;-75
2021/12/27 22:42:56;;;;;;;11.27;6.18;;;7.30;99.90;;;;;;6728037;88;20247;-75
2021/12/27 22:52:58;;;;;;;11.55;6.65;;;7.40;99.90;;;;;;6727924;88;21011;-75
2021/12/27 23:02:59;;;;;;;9.95;5.75;;;7.40;99.90;;;;;;6727367;88;20642;-74
2021/12/27 23:13:01;;;;;;;10.68;6.05;;;7.30;99.90;;;;;;6725133;88;20210;-74
2021/12/27 23:23:02;;;;;;;10.38;6.70;;;7.30;99.90;;;;;;6727237;88;20189;-75
2021/12/27 23:33:17;;;;;;;10.32;6.28;;;7.20;99.90;;;;;;6725897;88;20199;-75
2021/12/27 23:43:18;;;;;;;12.90;6.65;;;7.10;99.90;;;;;;6727274;88;20249;-76
2021/12/27 23:53:19;;;;;;;9.45;5.93;;;7.10;99.90;;;;;;6735276;88;20193;-76
